Pioneer Knutsen — LMIK — position and weather

sailwx.info

Track history (hours):
 
Tides and Currents Weather Stations Pressure Air Temp Water Temp Dewpoint Dewpoint Depression Visibility Wind Speed Wind Dir Waves Ship Positions

Pioneer Knutsen

Last reported at 2014-Sep-17 10:23 UTC. Time now 2014-Oct-01 10:24 UTC.
Position N 64°45' E 010°59'.
Warning: this ship's position is 14 days out of date.

Length 70 m; draft 3.6 m.

Type: Tanker. MMSI: 259393000.

Date/timePositionNaut miles runAvg speedWind from/ knotsBaromVisibWave heightAir tempDewpointWater temp
2014-Sep-17 10:23N 64°45' E 010°59'1011.9
2014-Sep-17 09:34N 64°52' E 011°15'1212.0
2014-Sep-17 08:34N 64°60' E 011°36'22 1.2
2014-Sep-16 14:29N 65°19' E 012°01'1412.6
2014-Sep-16 13:24N 65°07' E 011°49'1012.2
2014-Sep-16 12:33N 64°58' E 011°34'1312.6
2014-Sep-16 11:33N 64°50' E 011°11'36610.2
2014-Sep-14 23:34N 59°25' E 005°14'1312.5
2014-Sep-14 22:33N 59°13' E 005°21'1111.4
2014-Sep-14 21:33N 59°03' E 005°33'8 7.4
2014-Sep-14 20:32N 58°55' E 005°35'0 0.0
2014-Sep-14 19:31N 58°55' E 005°35'0 0.0
2014-Sep-14 18:25N 58°55' E 005°35'0 0.0
2014-Sep-14 17:30N 58°55' E 005°35'0 0.0
2014-Sep-14 16:33N 58°55' E 005°35'0 0.0
2014-Sep-14 15:32N 58°55' E 005°35'0 0.0
2014-Sep-14 14:32N 58°55' E 005°35'0 0.0
2014-Sep-14 13:31N 58°55' E 005°35'3 3.6
2014-Sep-14 12:34N 58°59' E 005°33'1111.4
2014-Sep-14 11:34N 59°09' E 005°22'1212.4
2014-Sep-14 10:33N 59°21' E 005°19'9 0.2
2014-Sep-12 13:20N 59°29' E 005°13'911.1
2014-Sep-12 12:33N 59°21' E 005°19'1211.8
2014-Sep-12 11:33N 59°10' E 005°22'1211.7
2014-Sep-12 10:33N 58°59' E 005°33'4 3.6
2014-Sep-12 09:28N 58°55' E 005°35'0 0.0
2014-Sep-12 08:31N 58°55' E 005°35'0 0.0
2014-Sep-12 07:33N 58°55' E 005°35'0 0.0
2014-Sep-12 06:33N 58°55' E 005°35'0 0.0
2014-Sep-12 05:33N 58°55' E 005°35'0 0.0
2014-Sep-12 04:32N 58°55' E 005°35'0 0.0
2014-Sep-12 03:32N 58°55' E 005°35'0 0.0
2014-Sep-12 02:31N 58°55' E 005°35'4 3.7
2014-Sep-12 01:33N 58°59' E 005°33'1212.0
2014-Sep-12 00:33N 59°09' E 005°21'378 9.9
2014-Sep-10 10:29N 64°50' E 011°10'1111.2
2014-Sep-10 09:32N 64°57' E 011°29'6 0.3
2014-Sep-09 13:24N 65°01' E 011°41'1012.1
2014-Sep-09 12:33N 64°55' E 011°22'38310.1
2014-Sep-07 22:34N 59°11' E 005°21'1211.6
2014-Sep-07 21:34N 59°01' E 005°33'6 5.6
2014-Sep-07 20:32N 58°55' E 005°35'0 0.0
2014-Sep-07 19:31N 58°55' E 005°35'0 0.0
2014-Sep-07 18:31N 58°55' E 005°35'0 0.0
2014-Sep-07 17:33N 58°55' E 005°35'0 0.0
2014-Sep-07 16:33N 58°55' E 005°35'0 0.0
2014-Sep-07 15:32N 58°55' E 005°35'0 0.0
2014-Sep-07 14:32N 58°55' E 005°35'0 0.0
2014-Sep-07 13:33N 58°55' E 005°35'1010.1
2014-Sep-07 12:33N 59°05' E 005°31'1311.3
2014-Sep-07 11:23N 59°18' E 005°20'1012.4
2014-Sep-07 10:33N 59°27' E 005°13'  
Track history (hours):
 
Tides and Currents Weather Stations Pressure Air Temp Water Temp Dewpoint Dewpoint Depression Visibility Wind Speed Wind Dir Waves Ship Positions

Pioneer Knutsen

Last reported at 2014-Sep-17 10:23 UTC. Time now 2014-Oct-01 10:24 UTC.
Position N 64°45' E 010°59'.
Warning: this ship's position is 14 days out of date.

Length 70 m; draft 3.6 m.

Type: Tanker. MMSI: 259393000.

Date/timePositionNaut miles runAvg speedWind from/ knotsBaromVisibWave heightAir tempDewpointWater temp
2014-Sep-17 10:23N 64°45' E 010°59'1011.9
2014-Sep-17 09:34N 64°52' E 011°15'1212.0
2014-Sep-17 08:34N 64°60' E 011°36'22 1.2
2014-Sep-16 14:29N 65°19' E 012°01'1412.6
2014-Sep-16 13:24N 65°07' E 011°49'1012.2
2014-Sep-16 12:33N 64°58' E 011°34'1312.6
2014-Sep-16 11:33N 64°50' E 011°11'36610.2
2014-Sep-14 23:34N 59°25' E 005°14'1312.5
2014-Sep-14 22:33N 59°13' E 005°21'1111.4
2014-Sep-14 21:33N 59°03' E 005°33'8 7.4
2014-Sep-14 20:32N 58°55' E 005°35'0 0.0
2014-Sep-14 19:31N 58°55' E 005°35'0 0.0
2014-Sep-14 18:25N 58°55' E 005°35'0 0.0
2014-Sep-14 17:30N 58°55' E 005°35'0 0.0
2014-Sep-14 16:33N 58°55' E 005°35'0 0.0
2014-Sep-14 15:32N 58°55' E 005°35'0 0.0
2014-Sep-14 14:32N 58°55' E 005°35'0 0.0
2014-Sep-14 13:31N 58°55' E 005°35'3 3.6
2014-Sep-14 12:34N 58°59' E 005°33'1111.4
2014-Sep-14 11:34N 59°09' E 005°22'1212.4
2014-Sep-14 10:33N 59°21' E 005°19'9 0.2
2014-Sep-12 13:20N 59°29' E 005°13'911.1
2014-Sep-12 12:33N 59°21' E 005°19'1211.8
2014-Sep-12 11:33N 59°10' E 005°22'1211.7
2014-Sep-12 10:33N 58°59' E 005°33'4 3.6
2014-Sep-12 09:28N 58°55' E 005°35'0 0.0
2014-Sep-12 08:31N 58°55' E 005°35'0 0.0
2014-Sep-12 07:33N 58°55' E 005°35'0 0.0
2014-Sep-12 06:33N 58°55' E 005°35'0 0.0
2014-Sep-12 05:33N 58°55' E 005°35'0 0.0
2014-Sep-12 04:32N 58°55' E 005°35'0 0.0
2014-Sep-12 03:32N 58°55' E 005°35'0 0.0
2014-Sep-12 02:31N 58°55' E 005°35'4 3.7
2014-Sep-12 01:33N 58°59' E 005°33'1212.0
2014-Sep-12 00:33N 59°09' E 005°21'378 9.9
2014-Sep-10 10:29N 64°50' E 011°10'1111.2
2014-Sep-10 09:32N 64°57' E 011°29'6 0.3
2014-Sep-09 13:24N 65°01' E 011°41'1012.1
2014-Sep-09 12:33N 64°55' E 011°22'38310.1
2014-Sep-07 22:34N 59°11' E 005°21'1211.6
2014-Sep-07 21:34N 59°01' E 005°33'6 5.6
2014-Sep-07 20:32N 58°55' E 005°35'0 0.0
2014-Sep-07 19:31N 58°55' E 005°35'0 0.0
2014-Sep-07 18:31N 58°55' E 005°35'0 0.0
2014-Sep-07 17:33N 58°55' E 005°35'0 0.0
2014-Sep-07 16:33N 58°55' E 005°35'0 0.0
2014-Sep-07 15:32N 58°55' E 005°35'0 0.0
2014-Sep-07 14:32N 58°55' E 005°35'0 0.0
2014-Sep-07 13:33N 58°55' E 005°35'1010.1
2014-Sep-07 12:33N 59°05' E 005°31'1311.3
2014-Sep-07 11:23N 59°18' E 005°20'1012.4
2014-Sep-07 10:33N 59°27' E 005°13'  

Dump ship's entire track history